createdAt,value
2022-12-11T00:00:33.685Z,44.77
2022-12-11T00:04:45.456Z,44.40
2022-12-11T00:08:57.085Z,47.47
2022-12-11T00:13:08.647Z,44.20
2022-12-11T00:17:20.263Z,48.73
2022-12-11T00:21:32.287Z,48.83
2022-12-11T00:25:45.780Z,40.63
2022-12-11T00:29:57.472Z,50.07
2022-12-11T00:34:12.097Z,37.30
2022-12-11T00:38:24.152Z,37.47
2022-12-11T00:42:35.750Z,44.77
2022-12-11T00:46:47.397Z,41.10
2022-12-11T00:51:00.221Z,39.93
2022-12-11T00:55:12.097Z,46.00
2022-12-11T00:59:23.895Z,39.33
2022-12-11T01:03:37.410Z,39.23
2022-12-11T01:07:49.178Z,38.60
2022-12-11T01:12:00.766Z,41.60
2022-12-11T01:16:15.883Z,38.73
2022-12-11T01:20:28.177Z,35.47
2022-12-11T01:24:39.694Z,40.90
2022-12-11T01:28:52.159Z,32.10
2022-12-11T01:33:04.296Z,36.33
2022-12-11T01:37:15.955Z,37.47
2022-12-11T01:41:27.584Z,33.70
2022-12-11T01:45:42.260Z,34.83
2022-12-11T01:49:53.951Z,44.17
2022-12-11T01:54:08.976Z,40.17
2022-12-11T01:58:25.417Z,37.60
2022-12-11T02:02:37.120Z,46.00
2022-12-11T02:06:50.916Z,40.37
2022-12-11T02:11:20.215Z,38.37
2022-12-11T02:15:56.729Z,42.00
2022-12-11T02:20:17.599Z,39.67
2022-12-11T02:24:57.272Z,51.90
2022-12-11T02:29:15.526Z,55.87
2022-12-11T02:33:42.278Z,56.67
2022-12-11T02:38:03.338Z,56.77
2022-12-11T02:42:16.393Z,63.10
2022-12-11T02:46:29.575Z,83.53
2022-12-11T02:50:46.746Z,56.60
2022-12-11T02:55:01.022Z,51.97
2022-12-11T02:59:21.527Z,51.77
2022-12-11T03:03:33.284Z,52.90
2022-12-11T03:07:45.468Z,48.73
2022-12-11T03:11:57.091Z,42.33
2022-12-11T03:16:31.597Z,51.00
2022-12-11T03:20:45.929Z,43.23
2022-12-11T03:25:06.437Z,44.53
2022-12-11T03:29:23.211Z,41.77
2022-12-11T03:33:39.271Z,46.00
2022-12-11T03:37:53.302Z,46.93
2022-12-11T03:42:09.326Z,41.67
2022-12-11T03:46:24.830Z,44.20
2022-12-11T03:50:37.483Z,46.70
2022-12-11T03:54:50.838Z,47.27
2022-12-11T03:59:02.541Z,42.20
2022-12-11T04:03:14.840Z,50.93
2022-12-11T04:07:26.920Z,52.57
2022-12-11T04:11:39.610Z,44.17
2022-12-11T04:15:51.355Z,46.53
2022-12-11T04:20:23.039Z,42.87
2022-12-11T04:24:34.755Z,48.53
2022-12-11T04:28:47.715Z,38.03
2022-12-11T04:32:59.313Z,45.87
2022-12-11T04:37:11.005Z,42.90
2022-12-11T04:41:22.590Z,42.70
2022-12-11T04:45:34.217Z,36.73
2022-12-11T04:49:46.060Z,45.87
2022-12-11T04:53:59.039Z,43.43
2022-12-11T04:58:10.621Z,35.80
2022-12-11T05:02:22.235Z,37.93
2022-12-11T05:06:33.904Z,37.13
2022-12-11T05:10:50.110Z,39.10
2022-12-11T05:15:01.837Z,42.20
2022-12-11T05:19:13.438Z,38.27
2022-12-11T05:23:25.200Z,40.57
2022-12-11T05:27:37.324Z,41.33
2022-12-11T05:31:48.898Z,39.17
2022-12-11T05:36:00.933Z,38.30
2022-12-11T05:40:12.828Z,36.43
2022-12-11T05:44:24.668Z,36.90
2022-12-11T05:48:37.644Z,31.93
2022-12-11T05:52:49.271Z,34.53
2022-12-11T05:57:00.838Z,37.87
2022-12-11T06:01:27.914Z,37.13
2022-12-11T06:05:41.927Z,31.23
2022-12-11T06:09:53.448Z,31.70
2022-12-11T06:14:05.188Z,37.43
2022-12-11T06:18:17.039Z,43.07
2022-12-11T06:22:28.629Z,29.67
2022-12-11T06:26:40.356Z,32.10
2022-12-11T06:30:52.329Z,33.73
2022-12-11T06:35:04.220Z,38.40
2022-12-11T06:39:15.787Z,37.87
2022-12-11T06:43:27.372Z,34.23
2022-12-11T06:47:38.976Z,27.97
2022-12-11T06:51:50.497Z,23.87
2022-12-11T06:56:14.069Z,24.10
2022-12-11T07:00:25.681Z,26.43
2022-12-11T07:04:37.292Z,29.07
2022-12-11T07:08:49.030Z,26.20
2022-12-11T07:13:00.511Z,23.60
2022-12-11T07:17:12.064Z,21.70
2022-12-11T07:21:23.630Z,36.30
2022-12-11T07:25:37.086Z,30.53
2022-12-11T07:29:50.221Z,39.30
2022-12-11T07:34:05.877Z,34.77
2022-12-11T07:38:17.335Z,24.73
2022-12-11T07:42:28.904Z,22.83
2022-12-11T07:46:40.532Z,27.00
2022-12-11T07:50:52.026Z,24.60
2022-12-11T07:55:04.284Z,18.20
2022-12-11T07:59:16.683Z,20.83
2022-12-11T08:03:28.237Z,22.17
2022-12-11T08:07:40.032Z,20.90
2022-12-11T08:11:52.073Z,20.87
2022-12-11T08:16:05.454Z,17.87
2022-12-11T08:20:16.955Z,15.97
2022-12-11T08:24:28.499Z,17.20
2022-12-11T08:28:40.301Z,17.50
2022-12-11T08:32:52.002Z,15.33
2022-12-11T08:37:03.552Z,14.97
2022-12-11T08:41:21.829Z,14.47
2022-12-11T08:45:34.078Z,15.50
2022-12-11T08:49:45.620Z,13.00
2022-12-11T08:53:59.492Z,13.93
2022-12-11T08:58:11.129Z,13.43
2022-12-11T09:02:22.759Z,15.53
2022-12-11T09:06:34.645Z,17.13
2022-12-11T09:10:46.226Z,14.80
2022-12-11T09:14:57.771Z,12.70
2022-12-11T09:19:14.063Z,13.40
2022-12-11T09:23:25.709Z,16.23
2022-12-11T09:27:37.316Z,14.10
2022-12-11T09:31:49.624Z,15.80
2022-12-11T09:36:02.708Z,12.70
2022-12-11T09:40:14.473Z,13.83
2022-12-11T09:44:54.891Z,16.83
2022-12-11T09:49:19.368Z,17.27
2022-12-11T09:53:35.856Z,15.27
2022-12-11T09:57:56.768Z,17.80
2022-12-11T10:02:22.592Z,13.47
2022-12-11T10:06:41.755Z,14.67
2022-12-11T10:11:34.637Z,16.60
2022-12-11T10:16:01.593Z,16.83
2022-12-11T10:20:28.566Z,15.60
2022-12-11T10:29:22.289Z,14.83
2022-12-11T10:34:02.268Z,15.10
2022-12-11T10:38:35.119Z,15.83
2022-12-11T10:42:54.601Z,16.20
2022-12-11T10:47:11.604Z,14.43
2022-12-11T10:51:33.284Z,15.50
2022-12-11T10:55:47.047Z,16.90
2022-12-11T10:59:59.961Z,11.57
2022-12-11T11:04:29.452Z,14.50
2022-12-11T11:08:50.606Z,15.90
2022-12-11T11:13:03.034Z,16.87
2022-12-11T11:17:17.405Z,16.20
2022-12-11T11:21:30.173Z,15.40
2022-12-11T11:25:59.485Z,14.63
2022-12-11T11:30:19.042Z,13.93
2022-12-11T11:34:30.974Z,19.87
2022-12-11T11:38:50.505Z,16.13
2022-12-11T11:43:38.299Z,16.63
2022-12-11T11:48:11.599Z,17.97
2022-12-11T11:52:34.472Z,16.40
2022-12-11T11:56:46.694Z,16.37
2022-12-11T12:00:58.202Z,17.60
2022-12-11T12:05:13.764Z,17.70
2022-12-11T12:09:54.258Z,22.67
2022-12-11T12:14:51.769Z,18.20
2022-12-11T12:19:42.337Z,17.80
2022-12-11T12:24:09.051Z,17.13
2022-12-11T12:28:53.679Z,19.90
2022-12-11T12:33:27.452Z,17.63
2022-12-11T12:37:57.835Z,17.53
2022-12-11T12:42:28.420Z,15.47
2022-12-11T12:46:53.472Z,15.97
2022-12-11T12:51:06.140Z,19.00
2022-12-11T12:55:22.990Z,19.40
2022-12-11T12:59:34.550Z,22.77
2022-12-11T13:04:05.621Z,19.50
2022-12-11T13:08:25.570Z,19.90
2022-12-11T13:12:42.497Z,12.70
2022-12-11T13:17:26.198Z,16.30
2022-12-11T13:21:41.152Z,20.30
2022-12-11T13:26:00.875Z,19.87
2022-12-11T13:30:15.227Z,19.63
2022-12-11T13:34:31.702Z,19.57
2022-12-11T13:38:50.754Z,20.53
2022-12-11T13:43:05.922Z,20.27
2022-12-11T13:47:19.729Z,15.67
2022-12-11T13:51:34.986Z,15.73
2022-12-11T13:55:47.501Z,17.23
2022-12-11T13:59:59.588Z,17.13
2022-12-11T14:04:17.482Z,16.90
2022-12-11T14:08:35.607Z,15.43
2022-12-11T14:13:10.897Z,17.77
2022-12-11T14:17:26.183Z,18.03
2022-12-11T14:21:38.416Z,16.27
2022-12-11T14:26:15.666Z,20.13
2022-12-11T14:30:30.290Z,16.20
2022-12-11T14:34:45.296Z,16.77
2022-12-11T14:39:02.822Z,19.20
2022-12-11T14:43:37.501Z,15.10
2022-12-11T14:47:50.263Z,16.27
2022-12-11T14:52:03.389Z,17.20
2022-12-11T14:56:19.908Z,17.23
2022-12-11T15:00:35.923Z,17.87
2022-12-11T15:05:03.295Z,21.40
2022-12-11T15:09:21.058Z,14.17
2022-12-11T15:13:35.120Z,19.03
2022-12-11T15:17:52.709Z,22.40
2022-12-11T15:22:08.386Z,20.13
2022-12-11T15:26:21.464Z,15.77
2022-12-11T15:30:35.015Z,12.77
2022-12-11T15:34:52.480Z,18.97
2022-12-11T15:39:09.380Z,21.13
2022-12-11T15:43:21.042Z,17.10
2022-12-11T15:47:33.128Z,16.63
2022-12-11T15:51:44.640Z,18.87
2022-12-11T15:55:57.902Z,14.97
2022-12-11T16:00:14.298Z,14.23
2022-12-11T16:04:25.795Z,12.00
2022-12-11T16:08:37.487Z,21.17
2022-12-11T16:12:49.022Z,20.27
2022-12-11T16:17:00.647Z,13.43
2022-12-11T16:21:15.644Z,16.00
2022-12-11T16:25:32.686Z,16.40
2022-12-11T16:29:44.330Z,16.10
2022-12-11T16:33:55.929Z,14.77
2022-12-11T16:38:07.750Z,19.77
2022-12-11T16:42:19.318Z,20.70
2022-12-11T16:46:31.835Z,19.50
2022-12-11T16:50:43.345Z,16.33
2022-12-11T16:54:56.907Z,19.30
2022-12-11T16:59:09.136Z,14.80
2022-12-11T17:03:20.657Z,18.40
2022-12-11T17:07:33.177Z,19.23
2022-12-11T17:11:44.836Z,19.37
2022-12-11T17:15:56.419Z,21.90
2022-12-11T17:20:09.065Z,20.37
2022-12-11T17:24:20.564Z,19.23
2022-12-11T17:28:32.377Z,17.70
2022-12-11T17:32:47.810Z,23.00
2022-12-11T17:36:59.401Z,23.20
2022-12-11T17:41:18.502Z,27.67
2022-12-11T17:45:32.102Z,21.37
2022-12-11T17:49:43.767Z,22.77
2022-12-11T17:53:56.048Z,28.63
2022-12-11T17:58:07.572Z,23.40
2022-12-11T18:02:19.213Z,21.87
2022-12-11T18:06:31.412Z,30.50
2022-12-11T18:10:43.575Z,25.03
2022-12-11T18:14:58.743Z,19.23
2022-12-11T18:19:10.619Z,17.87
2022-12-11T18:23:22.229Z,20.50
2022-12-11T18:27:33.755Z,18.40
2022-12-11T18:31:45.268Z,17.13
2022-12-11T18:35:56.883Z,12.67
2022-12-11T18:40:09.844Z,14.83
2022-12-11T18:44:22.675Z,17.17
2022-12-11T18:48:34.474Z,16.43
2022-12-11T18:52:45.970Z,17.03
2022-12-11T18:56:57.592Z,21.57
2022-12-11T19:01:17.257Z,16.20
2022-12-11T19:05:29.279Z,17.63
2022-12-11T19:09:46.224Z,17.63
2022-12-11T19:13:59.623Z,20.30
2022-12-11T19:18:11.266Z,19.87
2022-12-11T19:22:22.841Z,15.17
2022-12-11T19:26:35.691Z,17.80
2022-12-11T19:30:48.972Z,26.57
2022-12-11T19:35:00.546Z,23.47
2022-12-11T19:39:14.275Z,17.27
2022-12-11T19:43:25.846Z,17.70
2022-12-11T19:47:37.468Z,16.33
2022-12-11T19:51:49.249Z,13.93
2022-12-11T19:56:01.016Z,15.87
2022-12-11T20:00:13.001Z,19.17
2022-12-11T20:04:24.530Z,16.63
2022-12-11T20:08:44.982Z,16.03
2022-12-11T20:12:58.386Z,16.43
2022-12-11T20:17:12.801Z,16.17
2022-12-11T20:21:27.236Z,20.03
2022-12-11T20:25:40.345Z,13.80
2022-12-11T20:29:52.004Z,18.30
2022-12-11T20:34:04.644Z,16.93
2022-12-11T20:38:16.239Z,13.70
2022-12-11T20:42:27.826Z,17.53
2022-12-11T20:46:39.378Z,17.63
2022-12-11T20:50:50.935Z,18.87
2022-12-11T20:55:02.607Z,18.40
2022-12-11T20:59:14.313Z,17.60
2022-12-11T21:03:25.936Z,16.70
2022-12-11T21:07:37.540Z,15.43
2022-12-11T21:11:49.602Z,16.27
2022-12-11T21:16:05.396Z,16.60
2022-12-11T21:20:17.075Z,15.40
2022-12-11T21:24:29.721Z,17.73
2022-12-11T21:28:41.487Z,16.17
2022-12-11T21:32:53.275Z,17.47
2022-12-11T21:37:04.940Z,16.77
2022-12-11T21:41:22.294Z,16.70
2022-12-11T21:46:00.452Z,17.03
2022-12-11T21:50:08.480Z,18.20
2022-12-11T21:54:20.212Z,16.53
2022-12-11T21:58:31.874Z,22.80
2022-12-11T22:02:43.591Z,20.73
2022-12-11T22:06:55.265Z,18.07
2022-12-11T22:11:07.745Z,19.70
2022-12-11T22:15:19.607Z,20.73
2022-12-11T22:19:32.800Z,16.23
2022-12-11T22:23:44.903Z,13.30
2022-12-11T22:27:56.519Z,15.03
2022-12-11T22:32:08.144Z,14.97
2022-12-11T22:36:20.335Z,15.73
2022-12-11T22:40:32.181Z,14.67
2022-12-11T22:44:43.820Z,13.27
2022-12-11T22:48:55.870Z,14.17
2022-12-11T22:53:07.576Z,12.47
2022-12-11T22:57:19.138Z,13.90
2022-12-11T23:01:30.812Z,14.33
2022-12-11T23:05:43.301Z,14.10
2022-12-11T23:09:54.910Z,15.90
2022-12-11T23:14:08.831Z,14.90
2022-12-11T23:18:20.722Z,17.00
2022-12-11T23:22:33.280Z,15.17
2022-12-11T23:26:44.950Z,16.53
2022-12-11T23:30:56.630Z,15.40
2022-12-11T23:35:08.621Z,14.53
2022-12-11T23:39:20.210Z,14.90
2022-12-11T23:43:33.561Z,12.50
2022-12-11T23:47:45.177Z,14.60
2022-12-11T23:51:56.791Z,13.73
2022-12-11T23:56:12.656Z,15.20
